Time;durP1;ratioP1;P1;durP2;ratioP2;P2;SDS_P1;SDS_P2;PMS_P1;PMS_P2;Temp;Humidity;BMP_temperature;BMP_pressure;BME280_temperature;BME280_humidity;BME280_pressure;Samples;Min_cycle;Max_cycle;Signal;HPM_P1;HPM_P2
2022/11/19 05:00:55;;;;;;;8.95;4.20;;;-0.30;99.90;;;;;;6134453;23;20017;-80
2022/11/19 05:03:21;;;;;;;8.27;4.25;;;-0.30;99.90;;;;;;6185713;23;20041;-79
2022/11/19 05:05:47;;;;;;;9.55;4.38;;;-0.30;99.90;;;;;;6187398;23;20013;-78
2022/11/19 05:08:12;;;;;;;7.80;4.10;;;-0.30;99.90;;;;;;6185443;23;20005;-80
2022/11/19 05:10:38;;;;;;;8.15;4.22;;;-0.40;99.90;;;;;;6186210;23;20008;-79
2022/11/19 05:13:03;;;;;;;8.18;4.28;;;-0.40;99.90;;;;;;6185520;23;20017;-81
2022/11/19 05:15:29;;;;;;;7.55;3.88;;;-0.40;99.90;;;;;;6185431;23;20079;-81
2022/11/19 05:17:55;;;;;;;8.15;4.35;;;-0.50;99.90;;;;;;6185418;23;20084;-81
2022/11/19 05:20:20;;;;;;;7.05;4.10;;;-0.50;99.90;;;;;;6186897;23;20384;-81
2022/11/19 05:22:46;;;;;;;11.65;4.60;;;-0.50;99.90;;;;;;6185264;23;20335;-79
2022/11/19 05:25:11;;;;;;;9.73;4.40;;;-0.50;99.90;;;;;;6185312;23;20048;-79
2022/11/19 05:27:37;;;;;;;9.05;4.07;;;-0.50;99.90;;;;;;6185361;23;20021;-78
2022/11/19 05:30:03;;;;;;;9.38;4.60;;;-0.50;99.90;;;;;;6160401;23;20334;-80
2022/11/19 05:32:29;;;;;;;7.13;3.53;;;-0.50;99.90;;;;;;6186726;23;20013;-80
2022/11/19 05:34:54;;;;;;;7.72;4.13;;;-0.60;99.90;;;;;;6185240;23;20028;-79
2022/11/19 05:37:20;;;;;;;7.53;4.05;;;-0.60;99.90;;;;;;6185148;23;20312;-81
2022/11/19 05:39:45;;;;;;;8.02;4.30;;;-0.60;99.90;;;;;;6184578;23;20435;-78
2022/11/19 05:42:11;;;;;;;8.68;4.35;;;-0.60;99.90;;;;;;6186764;23;20005;-79
2022/11/19 05:44:37;;;;;;;9.52;4.55;;;-0.60;99.90;;;;;;6160626;23;20383;-80
2022/11/19 05:47:03;;;;;;;7.95;4.43;;;-0.60;99.90;;;;;;6185057;23;20069;-80
2022/11/19 05:49:28;;;;;;;6.88;3.88;;;-0.60;99.90;;;;;;6185427;23;20009;-78
2022/11/19 05:51:54;;;;;;;7.65;4.30;;;-0.70;99.90;;;;;;6184958;23;20075;-79
2022/11/19 05:54:19;;;;;;;8.00;3.95;;;-0.70;99.90;;;;;;6184961;23;20017;-80
2022/11/19 05:56:45;;;;;;;8.35;4.65;;;-0.70;99.90;;;;;;6186827;23;20326;-79
2022/11/19 05:59:11;;;;;;;6.80;4.00;;;-0.70;99.90;;;;;;6185024;23;20407;-80
2022/11/19 06:01:36;;;;;;;8.30;4.38;;;-0.70;99.90;;;;;;6185945;23;20013;-82
2022/11/19 06:04:02;;;;;;;10.02;4.75;;;-0.70;99.90;;;;;;6184879;23;20049;-81
2022/11/19 06:06:28;;;;;;;8.73;4.47;;;-0.70;99.90;;;;;;6186359;23;20013;-81
2022/11/19 06:08:54;;;;;;;7.43;4.05;;;-0.70;99.90;;;;;;6184817;23;20017;-80
2022/11/19 06:14:03;;;;;;;8.55;4.50;;;-0.80;99.90;;;;;;6184699;23;20021;-80
2022/11/19 06:16:32;;;;;;;8.65;4.50;;;-0.80;99.90;;;;;;6186675;23;20017;-81
2022/11/19 06:18:57;;;;;;;9.20;4.40;;;-0.80;99.90;;;;;;6185320;23;20013;-79
2022/11/19 06:21:25;;;;;;;9.02;4.90;;;-0.80;99.90;;;;;;6185240;23;20055;-82
2022/11/19 06:23:51;;;;;;;8.20;4.60;;;-0.90;99.90;;;;;;6128457;23;20089;-81
2022/11/19 06:26:27;;;;;;;7.63;4.43;;;-0.90;99.90;;;;;;6129425;23;20056;-79
2022/11/19 06:28:54;;;;;;;10.30;4.97;;;-0.90;99.90;;;;;;6129365;23;20153;-79
2022/11/19 06:31:20;;;;;;;10.23;5.03;;;-0.90;99.90;;;;;;6153969;23;20041;-78
2022/11/19 06:33:46;;;;;;;8.05;4.53;;;-0.90;99.90;;;;;;6129247;23;20501;-79
2022/11/19 06:36:12;;;;;;;9.57;5.15;;;-0.90;99.90;;;;;;6129384;23;20017;-80
2022/11/19 06:38:38;;;;;;;9.63;4.63;;;-0.90;99.90;;;;;;6129138;23;20020;-79
2022/11/19 06:41:04;;;;;;;9.00;4.88;;;-0.90;99.90;;;;;;6153670;23;20022;-78
2022/11/19 06:43:29;;;;;;;10.77;5.90;;;-0.90;99.90;;;;;;6129037;23;20399;-78
2022/11/19 06:45:55;;;;;;;10.15;5.60;;;-1.00;99.90;;;;;;6153660;23;20009;-81
2022/11/19 06:48:21;;;;;;;10.18;5.22;;;-1.00;99.90;;;;;;6169341;23;20045;-79
2022/11/19 06:50:47;;;;;;;10.88;5.60;;;-1.00;99.90;;;;;;6183965;23;20045;-80
2022/11/19 06:53:12;;;;;;;10.32;5.22;;;-1.00;99.90;;;;;;6184917;23;20391;-80
2022/11/19 06:55:38;;;;;;;10.45;5.78;;;-1.00;99.90;;;;;;6183336;23;20314;-80
2022/11/19 06:58:05;;;;;;;10.98;5.53;;;-1.00;99.90;;;;;;6183320;23;20137;-78
2022/11/19 07:00:31;;;;;;;11.98;5.68;;;-1.00;99.90;;;;;;6184644;23;20032;-79
2022/11/19 07:02:57;;;;;;;11.18;5.85;;;-1.00;99.90;;;;;;6185086;23;20335;-80
2022/11/19 07:05:23;;;;;;;11.75;6.22;;;-1.00;99.90;;;;;;6183250;23;20017;-80
2022/11/19 07:07:48;;;;;;;13.48;6.50;;;-1.00;99.90;;;;;;6183260;23;20323;-79
2022/11/19 07:10:15;;;;;;;12.45;5.93;;;-1.10;99.90;;;;;;6184887;23;20009;-80
2022/11/19 07:12:40;;;;;;;11.20;6.18;;;-1.10;99.90;;;;;;6208546;23;20366;-79
2022/11/19 07:15:06;;;;;;;10.45;5.50;;;-1.10;99.90;;;;;;6184877;23;20016;-81
2022/11/19 07:17:32;;;;;;;11.35;6.20;;;-1.10;99.90;;;;;;6183094;23;20013;-81
2022/11/19 07:19:58;;;;;;;11.68;6.25;;;-1.10;99.90;;;;;;6183171;23;20017;-82
2022/11/19 07:22:23;;;;;;;15.45;6.43;;;-1.10;99.90;;;;;;6158071;23;20019;-82
2022/11/19 07:24:49;;;;;;;12.90;6.78;;;-1.00;99.90;;;;;;6183299;23;20089;-82
2022/11/19 07:27:15;;;;;;;11.68;6.25;;;-1.10;99.90;;;;;;6183222;23;20013;-83
2022/11/19 07:29:44;;;;;;;11.27;6.18;;;-1.10;99.90;;;;;;6183203;23;20032;-83
2022/11/19 07:32:20;;;;;;;13.65;6.45;;;-1.10;99.90;;;;;;6183079;23;20017;-87
2022/11/19 07:34:45;;;;;;;13.10;6.63;;;-1.00;99.90;;;;;;6182714;23;20052;-83
2022/11/19 07:37:11;;;;;;;12.18;6.38;;;-1.10;99.90;;;;;;6183568;23;20040;-84
2022/11/19 07:39:37;;;;;;;11.77;6.35;;;-1.10;99.90;;;;;;6186088;23;20055;-82
2022/11/19 07:44:46;;;;;;;12.65;6.65;;;-1.00;99.90;;;;;;6184091;23;20021;-80
2022/11/19 07:47:12;;;;;;;13.40;6.55;;;-1.00;99.90;;;;;;6159569;23;20132;-80
2022/11/19 07:49:38;;;;;;;13.48;7.20;;;-1.00;99.90;;;;;;6184237;23;20044;-81
2022/11/19 07:52:03;;;;;;;14.43;7.45;;;-1.00;99.90;;;;;;6183974;23;20140;-81
2022/11/19 07:54:29;;;;;;;10.88;6.13;;;-1.00;99.90;;;;;;6184490;23;20048;-82
2022/11/19 07:56:55;;;;;;;15.00;7.63;;;-1.00;99.90;;;;;;6184473;23;20021;-81
2022/11/19 07:59:20;;;;;;;12.05;6.65;;;-1.00;99.90;;;;;;6184233;23;20017;-80
2022/11/19 08:01:46;;;;;;;13.13;7.32;;;-0.90;99.90;;;;;;6164906;23;20013;-81
2022/11/19 08:04:12;;;;;;;11.98;6.78;;;-0.90;99.90;;;;;;6193890;23;20013;-81
2022/11/19 08:06:37;;;;;;;12.95;6.75;;;-0.90;99.90;;;;;;6205871;23;20044;-82
2022/11/19 08:09:04;;;;;;;13.63;7.47;;;-0.90;99.90;;;;;;6207034;23;20020;-81
2022/11/19 08:11:30;;;;;;;12.70;7.18;;;-0.90;99.90;;;;;;6189609;23;20439;-82
2022/11/19 08:13:59;;;;;;;12.80;7.15;;;-0.80;99.90;;;;;;6188067;23;20012;-81
2022/11/19 08:19:12;;;;;;;14.18;7.93;;;-0.80;99.90;;;;;;6186268;23;20075;-81
2022/11/19 08:21:44;;;;;;;15.73;7.25;;;-0.80;99.90;;;;;;6187785;23;20009;-82
2022/11/19 08:24:09;;;;;;;13.80;7.00;;;-0.70;99.90;;;;;;6186026;23;20443;-78
2022/11/19 08:26:36;;;;;;;13.00;7.35;;;-0.70;99.90;;;;;;6186010;23;20020;-85
2022/11/19 08:29:02;;;;;;;14.38;7.50;;;-0.60;99.90;;;;;;6186263;23;20013;-84
2022/11/19 08:31:28;;;;;;;12.77;7.35;;;-0.60;99.90;;;;;;6187820;23;20013;-83
2022/11/19 08:33:53;;;;;;;14.05;7.50;;;-0.50;99.90;;;;;;6188895;23;20017;-83
2022/11/19 08:36:19;;;;;;;12.93;6.78;;;-0.40;99.90;;;;;;6185814;23;20056;-82
2022/11/19 08:38:45;;;;;;;12.68;7.00;;;-0.30;99.90;;;;;;6185810;23;20013;-82
2022/11/19 08:43:54;;;;;;;13.55;7.57;;;0.10;99.90;;;;;;6185914;23;20100;-84
2022/11/19 08:46:20;;;;;;;13.32;7.18;;;0.40;99.90;;;;;;6187971;23;20046;-81
2022/11/19 08:48:46;;;;;;;14.45;7.18;;;0.70;99.90;;;;;;6211093;23;20013;-82
2022/11/19 08:51:15;;;;;;;13.05;7.20;;;1.00;99.90;;;;;;6187931;23;20326;-81
2022/11/19 08:53:41;;;;;;;12.18;6.63;;;1.20;99.90;;;;;;6186214;23;20390;-82
2022/11/19 08:56:07;;;;;;;12.75;6.97;;;1.40;99.90;;;;;;6186919;23;20095;-81
2022/11/19 08:58:33;;;;;;;13.85;6.78;;;1.30;99.90;;;;;;6187920;23;20372;-81
2022/11/19 09:00:58;;;;;;;11.02;6.90;;;1.20;99.90;;;;;;6185534;23;20009;-82
2022/11/19 09:03:24;;;;;;;13.65;6.75;;;1.00;99.90;;;;;;6185670;23;20097;-81
2022/11/19 09:05:58;;;;;;;10.63;6.18;;;0.80;99.90;;;;;;6187240;23;20009;-81
2022/11/19 09:08:23;;;;;;;11.75;6.57;;;0.80;99.90;;;;;;6186063;23;20331;-81
2022/11/19 09:10:49;;;;;;;12.20;6.80;;;0.70;99.90;;;;;;6185513;23;20013;-81
2022/11/19 09:13:14;;;;;;;11.52;6.57;;;0.70;99.90;;;;;;6187496;23;20024;-81
2022/11/19 09:15:40;;;;;;;10.48;6.13;;;0.70;99.90;;;;;;6187440;23;20312;-80
2022/11/19 09:18:06;;;;;;;11.88;6.57;;;0.60;99.90;;;;;;6187196;23;20370;-79
2022/11/19 09:20:31;;;;;;;11.48;6.85;;;0.70;99.90;;;;;;6185318;23;20020;-80
2022/11/19 09:22:57;;;;;;;9.95;6.00;;;0.90;99.90;;;;;;6185447;23;20020;-80
2022/11/19 09:25:23;;;;;;;11.43;6.25;;;1.10;99.90;;;;;;6187486;23;20013;-81
2022/11/19 09:27:48;;;;;;;12.55;6.32;;;1.30;99.90;;;;;;6185691;23;20092;-81
2022/11/19 09:30:14;;;;;;;9.57;5.95;;;1.40;99.90;;;;;;6185054;23;20490;-81
2022/11/19 09:32:39;;;;;;;11.07;6.50;;;1.50;99.90;;;;;;6185389;23;20049;-80
2022/11/19 09:35:06;;;;;;;10.40;6.10;;;1.60;99.90;;;;;;6185189;23;20204;-80
2022/11/19 09:37:32;;;;;;;10.98;6.07;;;1.60;99.90;;;;;;6185147;23;20017;-79
2022/11/19 09:39:59;;;;;;;10.13;6.03;;;1.70;99.90;;;;;;6160127;23;20013;-81
2022/11/19 09:42:44;;;;;;;10.80;5.38;;;1.80;99.90;;;;;;6186970;23;20013;-80
2022/11/19 09:45:24;;;;;;;9.57;5.75;;;1.90;99.90;;;;;;6185540;23;20017;-81
2022/11/19 09:48:18;;;;;;;9.05;5.43;;;2.00;99.90;;;;;;6210245;23;20037;-79
2022/11/19 09:50:58;;;;;;;10.48;5.35;;;2.20;99.90;;;;;;6184891;23;20442;-80
2022/11/19 09:53:29;;;;;;;9.02;4.88;;;2.40;99.90;;;;;;6185127;23;20066;-79
2022/11/19 09:55:57;;;;;;;8.45;4.93;;;2.50;99.90;;;;;;6210175;23;20017;-80
2022/11/19 09:58:41;;;;;;;7.95;5.13;;;2.60;99.90;;;;;;6209928;23;20017;-81
2022/11/19 10:01:17;;;;;;;9.63;5.68;;;2.70;99.90;;;;;;6187166;23;20013;-80
2022/11/19 10:03:48;;;;;;;8.82;5.32;;;2.80;99.90;;;;;;6160519;23;20084;-83
2022/11/19 10:06:13;;;;;;;9.23;5.43;;;3.00;99.90;;;;;;6185396;23;20510;-81
2022/11/19 10:09:03;;;;;;;8.00;4.63;;;3.20;99.90;;;;;;6185234;23;20086;-82
2022/11/19 10:11:45;;;;;;;10.20;5.15;;;3.30;99.90;;;;;;6160290;23;20028;-82
2022/11/19 10:14:28;;;;;;;8.70;5.05;;;3.40;99.90;;;;;;6185174;23;20442;-80
2022/11/19 10:17:20;;;;;;;8.27;4.38;;;3.50;99.90;;;;;;6185055;23;20017;-79
2022/11/19 10:20:05;;;;;;;6.60;4.40;;;3.60;99.90;;;;;;6184954;23;20044;-81
2022/11/19 10:22:42;;;;;;;8.10;4.55;;;3.80;99.90;;;;;;6186623;23;20020;-80
2022/11/19 10:25:14;;;;;;;8.48;4.82;;;3.90;99.90;;;;;;6185011;23;20017;-81
2022/11/19 10:27:51;;;;;;;8.82;5.13;;;4.10;99.90;;;;;;6185175;23;20013;-80
2022/11/19 10:30:20;;;;;;;8.38;5.07;;;4.30;99.90;;;;;;6160003;23;20013;-82
2022/11/19 10:33:02;;;;;;;8.23;4.78;;;4.40;99.90;;;;;;6184662;23;20071;-80
2022/11/19 10:35:36;;;;;;;9.32;5.57;;;4.60;99.90;;;;;;6186643;23;20080;-82
2022/11/19 10:38:05;;;;;;;8.52;4.47;;;4.70;99.90;;;;;;6184716;23;20009;-80
2022/11/19 10:40:40;;;;;;;7.85;4.70;;;4.80;99.90;;;;;;6184648;23;20016;-79
2022/11/19 10:43:45;;;;;;;7.82;5.05;;;4.80;99.90;;;;;;6184719;23;20048;-78
2022/11/19 10:46:12;;;;;;;8.27;4.68;;;5.00;99.90;;;;;;6160334;23;20407;-81
2022/11/19 10:48:48;;;;;;;7.13;4.50;;;5.00;99.90;;;;;;6185051;23;20013;-81
2022/11/19 10:51:28;;;;;;;7.43;4.85;;;5.10;99.90;;;;;;6184697;23;20113;-82
2022/11/19 10:53:54;;;;;;;6.93;4.63;;;5.10;99.90;;;;;;6184974;23;20020;-80
2022/11/19 10:56:37;;;;;;;9.27;5.03;;;5.20;99.90;;;;;;6184386;23;20088;-80
2022/11/19 10:59:23;;;;;;;9.07;5.00;;;5.20;99.90;;;;;;6184415;23;20089;-79
2022/11/19 11:01:55;;;;;;;;;;;5.20;99.90;;;;;;6186452;23;20040;-80
2022/11/19 11:04:23;;;;;;;7.85;4.60;;;5.40;99.90;;;;;;6184788;23;19999;-80
2022/11/19 11:06:58;;;;;;;8.18;5.22;;;5.50;99.90;;;;;;6210310;23;20084;-79
2022/11/19 11:09:41;;;;;;;7.37;4.60;;;5.70;99.90;;;;;;6185461;23;20040;-80
2022/11/19 11:15:15;;;;;;;6.97;4.22;;;5.90;99.90;;;;;;6184295;23;20020;-79
2022/11/19 11:17:43;;;;;;;9.07;4.85;;;5.90;99.90;;;;;;6160370;23;20036;-80
2022/11/19 11:20:15;;;;;;;6.80;4.20;;;6.00;99.90;;;;;;6209409;23;20012;-79
2022/11/19 11:22:42;;;;;;;6.43;4.32;;;6.10;99.90;;;;;;6186073;23;20048;-79
2022/11/19 11:25:22;;;;;;;6.45;4.25;;;6.10;99.90;;;;;;6184257;23;20092;-82
2022/11/19 11:28:13;;;;;;;6.82;4.18;;;6.20;99.90;;;;;;6185934;23;20390;-80
2022/11/19 11:30:58;;;;;;;9.50;4.18;;;6.20;99.90;;;;;;6184061;23;20013;-80
2022/11/19 11:33:35;;;;;;;7.00;4.15;;;6.30;99.90;;;;;;6159268;23;20056;-80
2022/11/19 11:36:14;;;;;;;5.82;3.83;;;6.30;99.90;;;;;;6183858;23;20024;-81
2022/11/19 11:38:46;;;;;;;7.00;4.60;;;6.20;99.90;;;;;;6184042;23;20048;-79
2022/11/19 11:41:16;;;;;;;6.43;4.10;;;6.30;99.90;;;;;;6184366;23;20013;-78
2022/11/19 11:44:02;;;;;;;7.07;3.97;;;6.30;99.90;;;;;;6186668;23;20017;-80
2022/11/19 11:46:47;;;;;;;5.75;3.67;;;6.30;99.90;;;;;;6184260;23;20013;-82
2022/11/19 11:49:23;;;;;;;6.15;3.97;;;6.30;99.90;;;;;;6159267;23;20052;-81
2022/11/19 11:52:08;;;;;;;7.50;4.15;;;6.30;99.90;;;;;;6184408;23;20120;-77
2022/11/19 11:54:35;;;;;;;5.95;3.90;;;6.40;99.90;;;;;;6184076;23;20466;-80
2022/11/19 11:57:34;;;;;;;6.45;4.00;;;6.50;99.90;;;;;;6184458;23;20056;-80
2022/11/19 12:00:01;;;;;;;6.50;4.03;;;6.40;99.90;;;;;;6183833;23;20028;-78
2022/11/19 12:02:29;;;;;;;7.07;4.43;;;6.50;99.90;;;;;;6183807;23;20020;-79
2022/11/19 12:04:57;;;;;;;6.65;4.20;;;6.50;99.90;;;;;;6183933;23;20017;-81
2022/11/19 12:07:38;;;;;;;6.18;3.75;;;6.60;99.90;;;;;;6184078;23;20063;-79
2022/11/19 12:10:16;;;;;;;6.35;4.13;;;6.60;99.90;;;;;;6184514;23;20458;-81
2022/11/19 12:12:51;;;;;;;7.97;4.43;;;6.80;99.90;;;;;;6184194;23;20497;-81
2022/11/19 12:15:44;;;;;;;7.57;4.45;;;6.80;99.90;;;;;;6184375;23;20013;-80
2022/11/19 12:18:23;;;;;;;7.38;4.35;;;6.90;99.90;;;;;;6185631;23;20027;-81
2022/11/19 12:20:48;;;;;;;6.95;4.35;;;6.90;99.90;;;;;;6184219;23;20374;-79
2022/11/19 12:23:45;;;;;;;6.70;3.80;;;7.00;99.90;;;;;;6183862;23;20020;-81
2022/11/19 12:26:50;;;;;;;7.32;4.63;;;7.20;99.90;;;;;;6184164;23;20051;-81
2022/11/19 12:29:40;;;;;;;8.25;4.20;;;7.20;99.90;;;;;;6124485;23;20335;-80
2022/11/19 12:32:54;;;;;;;8.93;4.57;;;7.30;99.90;;;;;;6184137;23;20465;-80
2022/11/19 12:35:35;;;;;;;8.02;4.50;;;7.20;99.90;;;;;;6163239;23;20048;-79
2022/11/19 12:38:25;;;;;;;6.78;3.78;;;7.20;99.90;;;;;;6183871;23;20044;-79
2022/11/19 12:41:07;;;;;;;6.03;3.92;;;7.20;99.90;;;;;;6159214;23;20020;-80
2022/11/19 12:43:48;;;;;;;6.70;4.38;;;7.40;99.90;;;;;;6184184;23;20013;-82
2022/11/19 12:46:25;;;;;;;7.15;4.00;;;7.40;99.90;;;;;;6184383;23;20338;-80
2022/11/19 12:49:00;;;;;;;6.95;4.45;;;7.50;99.90;;;;;;6185423;23;20342;-79
2022/11/19 12:51:38;;;;;;;7.38;4.20;;;7.50;99.90;;;;;;6192720;23;20131;-79
2022/11/19 12:54:10;;;;;;;8.27;3.88;;;7.50;99.90;;;;;;6199919;23;20064;-76
2022/11/19 12:56:45;;;;;;;6.70;4.07;;;7.40;99.90;;;;;;6190306;23;20017;-80
2022/11/19 12:59:59;;;;;;;6.75;4.38;;;7.50;99.90;;;;;;6186421;23;20009;-79
2022/11/19 13:02:30;;;;;;;6.25;4.00;;;7.80;99.90;;;;;;6194612;23;20063;-81
2022/11/19 13:05:23;;;;;;;6.28;4.22;;;7.80;99.90;;;;;;6186103;23;20067;-80
2022/11/19 13:08:02;;;;;;;5.68;3.83;;;7.90;99.90;;;;;;6184807;23;20009;-79
2022/11/19 13:10:43;;;;;;;7.53;4.57;;;7.90;99.90;;;;;;6186109;23;20040;-80
2022/11/19 13:13:15;;;;;;;7.47;4.20;;;7.90;99.90;;;;;;6187818;23;20035;-80
2022/11/19 13:16:02;;;;;;;5.72;3.92;;;7.90;99.90;;;;;;6187118;23;20016;-79
2022/11/19 13:18:31;;;;;;;6.63;3.78;;;8.00;99.90;;;;;;6185456;23;20017;-80
2022/11/19 13:21:07;;;;;;;8.90;4.10;;;8.00;99.90;;;;;;6185737;23;20016;-80
2022/11/19 13:23:43;;;;;;;6.47;4.07;;;8.10;99.90;;;;;;6185532;23;20013;-79
2022/11/19 13:26:10;;;;;;;5.82;3.95;;;8.50;99.90;;;;;;6185123;23;20009;-80
2022/11/19 13:28:54;;;;;;;6.32;3.85;;;8.80;99.90;;;;;;6184800;23;20013;-80
2022/11/19 13:31:32;;;;;;;5.40;3.45;;;9.10;99.90;;;;;;6185178;23;20013;-79
2022/11/19 13:34:16;;;;;;;6.28;3.85;;;9.00;99.90;;;;;;6185087;23;20013;-79
2022/11/19 13:36:47;;;;;;;5.28;3.35;;;8.60;99.90;;;;;;6185157;23;20016;-80
2022/11/19 13:39:26;;;;;;;6.22;3.78;;;8.40;99.90;;;;;;6211532;23;20017;-81
2022/11/19 13:44:40;;;;;;;5.32;3.45;;;8.00;99.90;;;;;;6185003;23;20071;-81
2022/11/19 13:47:16;;;;;;;5.63;3.90;;;8.00;99.90;;;;;;6186352;23;20009;-80
2022/11/19 13:49:56;;;;;;;5.40;3.58;;;7.90;99.90;;;;;;6185226;23;20048;-80
2022/11/19 13:53:00;;;;;;;6.85;3.72;;;7.80;99.90;;;;;;6186404;23;20441;-78
2022/11/19 13:55:34;;;;;;;5.03;3.10;;;7.90;99.90;;;;;;6184012;23;20021;-79
2022/11/19 13:58:21;;;;;;;5.82;3.20;;;8.00;99.90;;;;;;6185763;23;20371;-79
2022/11/19 14:01:05;;;;;;;5.00;3.42;;;8.50;99.90;;;;;;6184284;23;20024;-79
2022/11/19 14:03:52;;;;;;;7.50;3.75;;;8.80;99.90;;;;;;6185087;23;20109;-80
2022/11/19 14:06:32;;;;;;;6.55;3.40;;;9.30;99.90;;;;;;6184998;23;20013;-81
2022/11/19 14:09:25;;;;;;;5.75;3.50;;;9.60;99.90;;;;;;6160081;23;20347;-80
2022/11/19 14:12:28;;;;;;;5.63;3.35;;;9.80;99.90;;;;;;6184806;23;20020;-80
2022/11/19 14:27:19;;;;;;;6.32;3.38;;;8.40;99.90;;;;;;6184774;23;20017;-80
2022/11/19 14:29:45;;;;;;;6.88;3.83;;;7.90;99.90;;;;;;6184846;23;20016;-81
2022/11/19 14:32:13;;;;;;;6.70;3.40;;;7.50;99.90;;;;;;6185216;23;20013;-80
2022/11/19 14:35:07;;;;;;;7.22;4.13;;;7.20;99.90;;;;;;6184827;23;20021;-79
2022/11/19 14:37:41;;;;;;;5.75;3.40;;;7.00;99.90;;;;;;6209674;23;20017;-79
2022/11/19 14:40:28;;;;;;;7.07;4.07;;;6.70;99.90;;;;;;6184519;23;20021;-80
2022/11/19 14:46:05;;;;;;;7.00;4.03;;;6.40;99.90;;;;;;6186061;23;20021;-81
2022/11/19 14:48:32;;;;;;;8.63;4.13;;;6.20;99.90;;;;;;6184343;23;20020;-79
2022/11/19 14:51:32;;;;;;;7.28;4.00;;;6.10;99.90;;;;;;6184336;23;20088;-80
2022/11/19 14:54:20;;;;;;;6.75;4.05;;;5.90;99.90;;;;;;6178097;23;20017;-80
2022/11/19 14:56:48;;;;;;;6.43;3.97;;;5.70;99.90;;;;;;6159787;23;20017;-79
2022/11/19 14:59:14;;;;;;;9.50;3.95;;;5.50;99.90;;;;;;6184728;23;20024;-81
2022/11/19 15:02:14;;;;;;;7.50;4.35;;;5.30;99.90;;;;;;6184009;23;20014;-79
2022/11/19 15:05:00;;;;;;;7.47;4.47;;;5.10;99.90;;;;;;6209516;23;20024;-80
2022/11/19 15:07:32;;;;;;;9.13;4.13;;;4.90;99.90;;;;;;6186161;23;20336;-81
2022/11/19 15:10:08;;;;;;;8.93;4.47;;;4.70;99.90;;;;;;6186048;23;20013;-80
2022/11/19 15:12:43;;;;;;;10.27;4.55;;;4.60;99.90;;;;;;6184112;23;20052;-80
2022/11/19 15:15:23;;;;;;;8.88;5.00;;;4.50;99.90;;;;;;6184465;23;20013;-78
2022/11/19 15:18:06;;;;;;;9.65;4.65;;;4.40;99.90;;;;;;6184805;23;20017;-80
2022/11/19 15:20:35;;;;;;;8.68;4.82;;;4.20;99.90;;;;;;6184463;23;20013;-80
2022/11/19 15:23:39;;;;;;;9.38;4.75;;;4.10;99.90;;;;;;6185469;23;20016;-79
2022/11/19 15:26:10;;;;;;;11.70;4.63;;;3.90;99.90;;;;;;6184713;23;20013;-79
2022/11/19 15:29:01;;;;;;;7.68;4.75;;;3.80;99.90;;;;;;6185384;23;20089;-80
2022/11/19 15:31:43;;;;;;;8.82;4.53;;;3.70;99.90;;;;;;6186055;23;20048;-79
2022/11/19 15:34:33;;;;;;;9.75;4.47;;;3.70;99.90;;;;;;6184598;23;20060;-80
2022/11/19 15:37:02;;;;;;;8.32;4.55;;;3.50;99.90;;;;;;6184607;23;20032;-78
2022/11/19 15:39:40;;;;;;;7.45;4.07;;;3.50;99.90;;;;;;6184404;23;20199;-79
2022/11/19 15:42:12;;;;;;;9.43;4.80;;;3.40;99.90;;;;;;6159302;23;20009;-79
2022/11/19 15:44:43;;;;;;;8.70;4.70;;;3.30;99.90;;;;;;6184387;23;20013;-79
2022/11/19 15:47:21;;;;;;;9.38;4.88;;;3.20;99.90;;;;;;6185477;23;20009;-80
2022/11/19 15:49:49;;;;;;;9.25;4.88;;;3.10;99.90;;;;;;6184399;23;20051;-79
2022/11/19 15:52:55;;;;;;;9.60;5.30;;;3.10;99.90;;;;;;6185637;23;20443;-79
2022/11/19 15:55:27;;;;;;;10.25;5.40;;;2.90;99.90;;;;;;6183806;23;20044;-78
2022/11/19 15:57:53;;;;;;;9.02;5.28;;;2.90;99.90;;;;;;6183957;23;20025;-79
2022/11/19 16:00:21;;;;;;;10.85;5.70;;;2.90;99.90;;;;;;6184013;23;20013;-79
2022/11/19 16:02:52;;;;;;;10.32;5.50;;;2.80;99.90;;;;;;6184057;23;20020;-80
2022/11/19 16:05:24;;;;;;;13.07;6.40;;;2.70;99.90;;;;;;6184022;23;20052;-80
2022/11/19 16:07:51;;;;;;;9.57;5.53;;;2.70;99.90;;;;;;6208991;23;20068;-79
2022/11/19 16:10:46;;;;;;;12.88;6.35;;;2.70;99.90;;;;;;6185204;23;20542;-80
2022/11/19 16:19:05;;;;;;;11.85;5.75;;;2.50;99.90;;;;;;6183953;23;20020;-79
2022/11/19 16:21:36;;;;;;;13.02;5.85;;;2.40;99.90;;;;;;6183866;23;20013;-80
2022/11/19 16:26:47;;;;;;;11.23;5.13;;;2.30;99.90;;;;;;6185886;23;20013;-80
2022/11/19 16:29:20;;;;;;;12.73;6.50;;;2.20;99.90;;;;;;6187669;23;20085;-78
2022/11/19 16:31:48;;;;;;;14.23;6.05;;;2.10;99.90;;;;;;6210890;23;20075;-79
2022/11/19 16:34:20;;;;;;;12.07;5.47;;;2.10;99.90;;;;;;6185858;23;20017;-78
2022/11/19 16:36:47;;;;;;;8.90;5.38;;;2.10;99.90;;;;;;6185857;23;20047;-80
2022/11/19 16:39:13;;;;;;;9.95;5.10;;;2.00;99.90;;;;;;6185685;23;20017;-80
2022/11/19 16:44:27;;;;;;;9.82;4.97;;;1.90;99.90;;;;;;6187133;23;20028;-79
2022/11/19 16:46:54;;;;;;;10.63;5.43;;;1.90;99.90;;;;;;6161142;23;20013;-78
2022/11/19 16:49:48;;;;;;;12.23;5.13;;;1.80;99.90;;;;;;6185736;23;20009;-80
2022/11/19 16:52:33;;;;;;;11.50;5.68;;;1.70;99.90;;;;;;6161690;23;20048;-81
2022/11/19 16:55:00;;;;;;;13.10;5.95;;;1.70;99.90;;;;;;6185668;23;20017;-80
2022/11/19 16:57:28;;;;;;;11.50;5.78;;;1.70;99.90;;;;;;6185570;23;20315;-79
2022/11/19 16:59:57;;;;;;;12.95;5.85;;;1.60;99.90;;;;;;6186189;23;20021;-79
2022/11/19 17:02:38;;;;;;;12.57;5.97;;;1.60;99.90;;;;;;6185359;23;20093;-80
2022/11/19 17:05:24;;;;;;;13.45;7.03;;;1.50;99.90;;;;;;6187463;23;20073;-80
2022/11/19 17:08:05;;;;;;;12.93;6.57;;;1.50;99.90;;;;;;6185677;23;20375;-79
2022/11/19 17:10:31;;;;;;;16.77;7.85;;;1.50;99.90;;;;;;6187579;23;20455;-80
2022/11/19 17:13:04;;;;;;;16.08;7.72;;;1.40;99.90;;;;;;6185522;23;20469;-79
2022/11/19 17:15:40;;;;;;;12.90;6.75;;;1.40;99.90;;;;;;6186868;23;20431;-78
2022/11/19 17:18:09;;;;;;;14.52;7.22;;;1.40;99.90;;;;;;6210751;23;20344;-80
2022/11/19 17:20:34;;;;;;;15.57;7.72;;;1.40;99.90;;;;;;6185648;23;20044;-79
2022/11/19 17:23:15;;;;;;;13.82;7.30;;;1.40;99.90;;;;;;6185512;23;20063;-79
2022/11/19 17:26:02;;;;;;;18.15;7.00;;;1.30;99.90;;;;;;6185672;23;20092;-78
2022/11/19 17:28:36;;;;;;;14.43;7.10;;;1.30;99.90;;;;;;6186384;23;20017;-80
2022/11/19 17:31:15;;;;;;;13.53;6.63;;;1.30;99.90;;;;;;6186074;23;20085;-80
2022/11/19 17:34:11;;;;;;;19.35;7.30;;;1.20;99.90;;;;;;6210614;23;20024;-78
2022/11/19 17:36:38;;;;;;;15.48;6.85;;;1.20;99.90;;;;;;6210078;23;20087;-79
2022/11/19 17:39:11;;;;;;;17.35;7.90;;;1.20;99.90;;;;;;6186487;23;20402;-85
2022/11/19 17:44:34;;;;;;;13.25;6.68;;;1.20;99.90;;;;;;6185789;23;20056;-79
2022/11/19 17:47:02;;;;;;;16.30;7.13;;;1.10;99.90;;;;;;6185339;23;20013;-78
2022/11/19 17:49:28;;;;;;;16.23;7.10;;;1.00;99.90;;;;;;6185317;23;20087;-79
2022/11/19 17:51:56;;;;;;;16.63;7.50;;;1.00;99.90;;;;;;6185173;23;20388;-79
2022/11/19 17:54:22;;;;;;;13.25;6.35;;;1.00;99.90;;;;;;6185301;23;20020;-79
2022/11/19 17:56:48;;;;;;;13.40;6.75;;;0.80;99.90;;;;;;6210276;23;20324;-78
2022/11/19 17:59:14;;;;;;;14.90;6.93;;;0.80;99.90;;;;;;6187285;23;20048;-78
2022/11/19 18:01:39;;;;;;;15.07;7.35;;;0.80;99.90;;;;;;6184813;23;20351;-79
2022/11/19 18:04:05;;;;;;;14.07;7.35;;;0.80;99.90;;;;;;6185267;23;20013;-79
2022/11/19 18:06:32;;;;;;;15.02;7.45;;;0.80;99.90;;;;;;6185130;23;20013;-79
2022/11/19 18:08:58;;;;;;;14.55;7.70;;;0.70;99.90;;;;;;6185208;23;20013;-79
2022/11/19 18:11:25;;;;;;;15.52;8.20;;;0.70;99.90;;;;;;6185168;23;20039;-79
2022/11/19 18:13:56;;;;;;;15.48;8.68;;;0.70;99.90;;;;;;6184813;23;20009;-77
2022/11/19 18:16:24;;;;;;;22.13;8.63;;;0.70;99.90;;;;;;6210083;23;20084;-79
2022/11/19 18:18:50;;;;;;;16.40;8.18;;;0.70;99.90;;;;;;6184929;23;20009;-78
2022/11/19 18:21:21;;;;;;;15.77;8.05;;;0.70;99.90;;;;;;6184744;23;20364;-80
2022/11/19 18:23:48;;;;;;;17.48;8.30;;;0.70;99.90;;;;;;6161110;23;20017;-77
2022/11/19 18:26:17;;;;;;;16.60;8.35;;;0.60;99.90;;;;;;6183808;23;20017;-78
2022/11/19 18:28:43;;;;;;;13.70;7.82;;;0.60;99.90;;;;;;6183482;23;20017;-78
2022/11/19 18:31:27;;;;;;;14.63;7.72;;;0.60;99.90;;;;;;6183700;23;20013;-77
2022/11/19 18:33:54;;;;;;;18.75;8.45;;;0.60;99.90;;;;;;6183726;23;20024;-79
2022/11/19 18:36:21;;;;;;;17.20;8.70;;;0.60;99.90;;;;;;6183562;23;20044;-80
2022/11/19 18:38:46;;;;;;;16.15;8.30;;;0.60;99.90;;;;;;6183524;23;20020;-79
2022/11/19 18:41:13;;;;;;;18.63;8.43;;;0.60;99.90;;;;;;6183407;23;20017;-80
2022/11/19 18:46:24;;;;;;;19.88;9.90;;;0.50;99.90;;;;;;6183249;23;20017;-80
2022/11/19 18:48:49;;;;;;;24.38;12.57;;;0.50;99.90;;;;;;6184989;23;20013;-76
2022/11/19 18:51:15;;;;;;;23.20;10.73;;;0.50;99.90;;;;;;6184813;23;20016;-79
2022/11/19 18:53:41;;;;;;;21.02;10.90;;;0.50;99.90;;;;;;6183627;23;20013;-80
2022/11/19 18:56:13;;;;;;;19.70;10.70;;;0.50;99.90;;;;;;6185157;23;20017;-78
2022/11/19 18:58:39;;;;;;;22.45;12.10;;;0.40;99.90;;;;;;6183457;23;20009;-78
2022/11/19 19:01:05;;;;;;;22.55;11.65;;;0.40;99.90;;;;;;6183052;23;20083;-78
2022/11/19 19:03:31;;;;;;;20.60;10.70;;;0.40;99.90;;;;;;6183132;23;20442;-79
2022/11/19 19:06:01;;;;;;;21.88;10.98;;;0.40;99.90;;;;;;6184856;23;20017;-79
2022/11/19 19:08:30;;;;;;;20.73;10.70;;;0.40;99.90;;;;;;6158486;23;20036;-79